createdAt,value
2018-12-26T00:00:29.915Z,82.44
2018-12-26T00:02:58.752Z,82.49
2018-12-26T00:05:28.488Z,82.71
2018-12-26T00:07:58.778Z,82.41
2018-12-26T00:10:27.564Z,82.52
2018-12-26T00:12:56.396Z,83.04
2018-12-26T00:15:25.192Z,82.67
2018-12-26T00:17:54.065Z,83.32
2018-12-26T00:20:22.854Z,83.04
2018-12-26T00:22:51.935Z,83.11
2018-12-26T00:25:20.839Z,82.92
2018-12-26T00:27:49.635Z,83.36
2018-12-26T00:30:18.419Z,83.52
2018-12-26T00:32:47.297Z,83.07
2018-12-26T00:35:16.149Z,83.32
2018-12-26T00:37:45.003Z,83.28
2018-12-26T00:40:14.523Z,83.53
2018-12-26T00:42:43.363Z,83.91
2018-12-26T00:45:12.151Z,83.47
2018-12-26T00:47:40.939Z,83.89
2018-12-26T00:50:10.506Z,83.57
2018-12-26T00:52:39.316Z,83.58
2018-12-26T00:55:08.116Z,83.03
2018-12-26T00:57:36.948Z,83.97
2018-12-26T01:00:06.755Z,83.28
2018-12-26T01:02:35.602Z,84.08
2018-12-26T01:05:04.395Z,84.26
2018-12-26T01:07:33.719Z,83.87
2018-12-26T01:10:02.549Z,84.12
2018-12-26T01:12:31.395Z,83.87
2018-12-26T01:15:00.213Z,84.16
2018-12-26T01:17:29.039Z,84.44
2018-12-26T01:19:57.824Z,84.09
2018-12-26T01:22:26.614Z,84.39
2018-12-26T01:24:55.399Z,84.13
2018-12-26T01:27:24.827Z,84.67
2018-12-26T01:29:53.668Z,84.64
2018-12-26T01:32:22.504Z,84.74
2018-12-26T01:34:51.282Z,84.61
2018-12-26T01:37:20.073Z,83.67
2018-12-26T01:39:49.878Z,84.76
2018-12-26T01:42:18.673Z,83.76
2018-12-26T01:44:47.535Z,84.79
2018-12-26T01:47:17.285Z,84.27
2018-12-26T01:49:47.144Z,84.62
2018-12-26T01:52:15.991Z,84.21
2018-12-26T01:54:44.816Z,84.61
2018-12-26T01:57:14.479Z,84.88
2018-12-26T01:59:43.286Z,85.16
2018-12-26T02:02:12.598Z,84.76
2018-12-26T02:04:41.366Z,84.22
2018-12-26T02:07:10.795Z,84.75
2018-12-26T02:09:39.588Z,85.06
2018-12-26T02:12:08.371Z,84.67
2018-12-26T02:14:37.304Z,85.26
2018-12-26T02:17:07.100Z,84.94
2018-12-26T02:19:35.871Z,84.99
2018-12-26T02:22:05.649Z,85.43
2018-12-26T02:24:34.903Z,85.14
2018-12-26T02:27:03.740Z,85.29
2018-12-26T02:29:33.202Z,85.16
2018-12-26T02:32:01.987Z,84.91
2018-12-26T02:34:30.822Z,84.93
2018-12-26T02:36:59.671Z,85.34
2018-12-26T02:39:29.726Z,85.19
2018-12-26T02:41:58.495Z,85.37
2018-12-26T02:44:27.823Z,84.76
2018-12-26T02:46:56.645Z,84.36
2018-12-26T02:49:25.556Z,84.46
2018-12-26T02:51:54.381Z,84.99
2018-12-26T02:54:23.159Z,84.80
2018-12-26T02:56:52.252Z,85.00
2018-12-26T02:59:21.572Z,85.24
2018-12-26T03:01:50.369Z,85.42
2018-12-26T03:04:20.636Z,84.94
2018-12-26T03:06:49.411Z,84.91
2018-12-26T03:09:18.789Z,84.89
2018-12-26T03:11:48.506Z,84.85
2018-12-26T03:14:17.301Z,85.14
2018-12-26T03:16:46.106Z,85.03
2018-12-26T03:19:16.046Z,84.79
2018-12-26T03:21:44.819Z,84.72
2018-12-26T03:24:13.676Z,84.78
2018-12-26T03:26:42.491Z,85.14
2018-12-26T03:29:11.284Z,85.08
2018-12-26T03:31:40.300Z,84.67
2018-12-26T03:34:09.561Z,84.61
2018-12-26T03:36:38.355Z,84.58
2018-12-26T03:39:07.144Z,84.71
2018-12-26T03:41:35.972Z,84.14
2018-12-26T03:44:06.206Z,84.48
2018-12-26T03:46:34.987Z,84.79
2018-12-26T03:49:03.922Z,84.46
2018-12-26T03:51:33.318Z,84.52
2018-12-26T03:54:02.091Z,84.33
2018-12-26T03:56:31.140Z,83.92
2018-12-26T03:59:01.149Z,83.89
2018-12-26T04:01:29.992Z,84.06
2018-12-26T04:03:58.823Z,83.96
2018-12-26T04:06:27.814Z,83.77
2018-12-26T04:08:56.889Z,84.44
2018-12-26T04:11:25.747Z,84.40
2018-12-26T04:13:54.468Z,83.76
2018-12-26T04:16:23.796Z,84.05
2018-12-26T04:18:52.817Z,83.65
2018-12-26T04:21:21.752Z,83.72
2018-12-26T04:23:50.541Z,84.41
2018-12-26T04:26:20.351Z,83.57
2018-12-26T04:28:49.334Z,84.46
2018-12-26T04:31:18.110Z,84.11
2018-12-26T04:33:48.915Z,84.46
2018-12-26T04:36:17.663Z,83.96
2018-12-26T04:38:46.467Z,84.16
2018-12-26T04:41:15.297Z,83.89
2018-12-26T04:43:44.644Z,83.74
2018-12-26T04:46:14.231Z,84.35
2018-12-26T04:48:43.023Z,84.14
2018-12-26T04:51:11.857Z,84.07
2018-12-26T04:53:40.631Z,84.17
2018-12-26T04:56:09.514Z,84.28
2018-12-26T04:58:38.306Z,84.06
2018-12-26T05:01:07.094Z,83.99
2018-12-26T05:03:35.924Z,84.28
2018-12-26T05:06:04.798Z,83.83
2018-12-26T05:08:33.672Z,84.10
2018-12-26T05:11:03.428Z,83.88
2018-12-26T05:13:33.643Z,84.19
2018-12-26T05:16:02.476Z,83.71
2018-12-26T05:18:31.677Z,83.70
2018-12-26T05:21:01.251Z,84.13
2018-12-26T05:23:30.214Z,84.04
2018-12-26T05:25:58.982Z,83.82
2018-12-26T05:28:27.761Z,83.65
2018-12-26T05:30:56.538Z,83.93
2018-12-26T05:33:25.311Z,84.08
2018-12-26T05:35:54.103Z,84.01
2018-12-26T05:38:23.491Z,83.46
2018-12-26T05:40:52.291Z,83.94
2018-12-26T05:43:21.208Z,83.86
2018-12-26T05:45:50.026Z,83.71
2018-12-26T05:48:18.803Z,83.28
2018-12-26T05:50:47.675Z,83.48
2018-12-26T05:53:16.521Z,83.73
2018-12-26T05:55:45.328Z,83.94
2018-12-26T05:58:14.122Z,83.49
2018-12-26T06:00:43.030Z,83.55
2018-12-26T06:03:12.475Z,83.20
2018-12-26T06:05:42.610Z,82.85
2018-12-26T06:08:11.767Z,83.38
2018-12-26T06:10:40.710Z,83.41
2018-12-26T06:13:09.502Z,83.40
2018-12-26T06:15:38.331Z,83.38
2018-12-26T06:18:08.311Z,83.12
2018-12-26T06:20:35.883Z,83.05
2018-12-26T06:23:04.666Z,83.69
2018-12-26T06:25:34.293Z,83.11
2018-12-26T06:28:03.071Z,83.38
2018-12-26T06:30:32.050Z,83.49
2018-12-26T06:33:00.832Z,82.97
2018-12-26T06:35:29.700Z,83.05
2018-12-26T06:37:58.472Z,82.60
2018-12-26T06:40:28.119Z,82.85
2018-12-26T06:42:56.914Z,83.04
2018-12-26T06:45:26.442Z,83.40
2018-12-26T06:47:55.220Z,83.02
2018-12-26T06:50:25.041Z,82.73
2018-12-26T06:52:53.876Z,83.08
2018-12-26T06:55:22.684Z,82.55
2018-12-26T06:57:59.860Z,82.68
2018-12-26T07:00:20.596Z,82.42
2018-12-26T07:02:49.751Z,82.92
2018-12-26T07:05:19.525Z,83.15
2018-12-26T07:07:48.874Z,82.47
2018-12-26T07:10:18.758Z,82.82
2018-12-26T07:12:47.665Z,82.25
2018-12-26T07:15:16.524Z,82.14
2018-12-26T07:17:45.315Z,82.64
2018-12-26T07:20:14.895Z,82.52
2018-12-26T07:22:43.740Z,82.05
2018-12-26T07:25:12.503Z,82.28
2018-12-26T07:27:41.820Z,82.75
2018-12-26T07:30:13.072Z,82.75
2018-12-26T07:32:41.871Z,82.20
2018-12-26T07:35:10.652Z,82.72
2018-12-26T07:37:39.447Z,82.45
2018-12-26T07:40:08.252Z,83.04
2018-12-26T07:42:37.110Z,82.44
2018-12-26T07:45:07.811Z,82.96
2018-12-26T07:47:36.660Z,82.72
2018-12-26T07:50:06.781Z,82.97
2018-12-26T07:52:35.699Z,83.36
2018-12-26T07:55:04.555Z,83.63
2018-12-26T07:57:33.351Z,83.33
2018-12-26T08:00:03.691Z,83.71
2018-12-26T08:02:32.496Z,83.49
2018-12-26T08:05:01.292Z,84.14
2018-12-26T08:07:30.356Z,84.29
2018-12-26T08:10:00.243Z,83.60
2018-12-26T08:12:29.057Z,83.88
2018-12-26T08:14:59.081Z,84.07
2018-12-26T08:17:27.864Z,84.12
2018-12-26T08:19:56.736Z,84.52
2018-12-26T08:22:26.635Z,84.96
2018-12-26T08:24:55.476Z,84.32
2018-12-26T08:27:24.283Z,84.32
2018-12-26T08:29:53.624Z,84.47
2018-12-26T08:32:22.411Z,84.96
2018-12-26T08:34:51.199Z,85.10
2018-12-26T08:37:20.126Z,84.84
2018-12-26T08:39:48.931Z,85.37
2018-12-26T08:42:18.579Z,84.91
2018-12-26T08:44:47.377Z,85.32
2018-12-26T08:47:16.169Z,85.45
2018-12-26T08:49:45.859Z,85.50
2018-12-26T08:52:15.250Z,85.42
2018-12-26T08:54:44.868Z,85.66
2018-12-26T08:57:13.727Z,85.27
2018-12-26T08:59:42.860Z,85.34
2018-12-26T09:02:12.399Z,86.13
2018-12-26T09:04:41.657Z,85.77
2018-12-26T09:07:10.539Z,85.79
2018-12-26T09:09:39.394Z,86.08
2018-12-26T09:12:09.881Z,85.86
2018-12-26T09:14:39.338Z,86.00
2018-12-26T09:17:08.116Z,86.25
2018-12-26T09:19:36.946Z,85.83
2018-12-26T09:22:05.842Z,85.96
2018-12-26T09:24:34.691Z,86.06
2018-12-26T09:27:06.680Z,86.04
2018-12-26T09:29:36.489Z,85.83
2018-12-26T09:32:05.539Z,86.06
2018-12-26T09:34:34.379Z,86.16
2018-12-26T09:37:03.203Z,86.47
2018-12-26T09:39:32.305Z,86.63
2018-12-26T09:42:01.443Z,86.50
2018-12-26T09:44:30.426Z,86.42
2018-12-26T09:46:59.216Z,86.05
2018-12-26T09:49:28.837Z,86.30
2018-12-26T09:51:57.739Z,85.99
2018-12-26T09:54:26.582Z,86.58
2018-12-26T09:56:55.376Z,86.08
2018-12-26T09:59:24.158Z,86.15
2018-12-26T10:01:54.459Z,86.18
2018-12-26T10:04:24.300Z,86.35
2018-12-26T10:06:53.068Z,86.72
2018-12-26T10:09:21.884Z,86.36
2018-12-26T10:11:50.682Z,86.03
2018-12-26T10:14:19.483Z,86.80
2018-12-26T10:16:48.256Z,86.60
2018-12-26T10:19:17.247Z,86.92
2018-12-26T10:21:46.179Z,86.01
2018-12-26T10:24:14.976Z,86.07
2018-12-26T10:26:43.807Z,85.98
2018-12-26T10:29:13.300Z,85.88
2018-12-26T10:31:42.198Z,86.36
2018-12-26T10:34:11.288Z,85.96
2018-12-26T10:36:41.447Z,86.05
2018-12-26T10:39:10.235Z,86.67
2018-12-26T10:41:39.036Z,86.44
2018-12-26T10:44:07.812Z,85.89
2018-12-26T10:46:36.636Z,86.70
2018-12-26T10:49:05.532Z,86.68
2018-12-26T10:51:34.281Z,86.09
2018-12-26T10:54:03.046Z,86.77
2018-12-26T10:56:31.931Z,86.47
2018-12-26T10:59:09.771Z,86.95
2018-12-26T11:01:31.774Z,86.91
2018-12-26T11:04:00.531Z,86.50
2018-12-26T11:06:29.639Z,86.47
2018-12-26T11:08:58.515Z,86.54
2018-12-26T11:11:27.299Z,86.70
2018-12-26T11:13:57.327Z,86.21
2018-12-26T11:16:27.124Z,86.71
2018-12-26T11:18:56.240Z,86.31
2018-12-26T11:21:25.163Z,86.33
2018-12-26T11:23:55.004Z,86.39
2018-12-26T11:26:23.811Z,86.62
2018-12-26T11:28:53.447Z,86.84
2018-12-26T11:31:22.286Z,86.41
2018-12-26T11:33:51.550Z,86.45
2018-12-26T11:36:20.465Z,86.89
2018-12-26T11:38:49.306Z,86.78
2018-12-26T11:41:18.291Z,86.60
2018-12-26T11:43:47.076Z,86.23
2018-12-26T11:46:15.893Z,86.94
2018-12-26T11:48:44.692Z,86.61
2018-12-26T11:51:14.014Z,86.18
2018-12-26T11:53:42.833Z,86.01
2018-12-26T11:56:11.664Z,86.04
2018-12-26T11:58:40.502Z,86.53
2018-12-26T12:01:09.350Z,86.17
2018-12-26T12:03:38.183Z,86.18
2018-12-26T12:06:09.026Z,86.13
2018-12-26T12:08:37.866Z,85.78
2018-12-26T12:11:06.688Z,85.85
2018-12-26T12:13:35.823Z,86.08
2018-12-26T12:16:05.506Z,86.16
2018-12-26T12:18:34.298Z,85.54
2018-12-26T12:21:03.160Z,85.60
2018-12-26T12:23:32.600Z,86.29
2018-12-26T12:26:01.593Z,85.85
2018-12-26T12:28:31.703Z,85.76
2018-12-26T12:31:00.483Z,85.90
2018-12-26T12:33:30.351Z,86.52
2018-12-26T12:35:59.159Z,86.19
2018-12-26T12:38:28.044Z,86.14
2018-12-26T12:40:56.854Z,86.43
2018-12-26T12:43:26.351Z,85.89
2018-12-26T12:45:56.090Z,86.21
2018-12-26T12:48:24.985Z,85.59
2018-12-26T12:50:53.805Z,86.07
2018-12-26T12:53:25.671Z,86.09
2018-12-26T12:55:54.495Z,85.77
2018-12-26T12:58:23.997Z,85.64
2018-12-26T13:00:52.982Z,86.24
2018-12-26T13:03:21.867Z,85.81
2018-12-26T13:05:50.680Z,85.83
2018-12-26T13:08:19.608Z,86.20
2018-12-26T13:10:50.153Z,85.80
2018-12-26T13:13:20.423Z,86.12
2018-12-26T13:15:49.230Z,86.07
2018-12-26T13:18:18.145Z,85.41
2018-12-26T13:20:49.325Z,85.04
2018-12-26T13:23:18.251Z,85.29
2018-12-26T13:25:47.180Z,85.13
2018-12-26T13:28:16.206Z,85.75
2018-12-26T13:30:45.042Z,85.63
2018-12-26T13:33:14.451Z,85.03
2018-12-26T13:35:43.899Z,84.76
2018-12-26T13:38:12.695Z,85.02
2018-12-26T13:40:42.085Z,84.90
2018-12-26T13:43:10.998Z,84.71
2018-12-26T13:45:39.782Z,85.10
2018-12-26T13:48:08.676Z,84.68
2018-12-26T13:50:37.463Z,84.44
2018-12-26T13:53:06.337Z,85.18
2018-12-26T13:55:36.179Z,84.57
2018-12-26T13:58:05.015Z,84.56
2018-12-26T14:00:33.806Z,84.53
2018-12-26T14:03:02.587Z,84.73
2018-12-26T14:05:31.495Z,84.59
2018-12-26T14:08:00.293Z,84.94
2018-12-26T14:10:29.112Z,84.60
2018-12-26T14:12:57.920Z,84.63
2018-12-26T14:15:26.731Z,84.82
2018-12-26T14:17:55.540Z,84.87
2018-12-26T14:20:24.508Z,84.94
2018-12-26T14:22:53.459Z,84.48
2018-12-26T14:25:22.243Z,84.63
2018-12-26T14:27:51.207Z,84.27
2018-12-26T14:30:19.999Z,84.40
2018-12-26T14:32:48.865Z,84.75
2018-12-26T14:35:17.747Z,84.69
2018-12-26T14:37:46.534Z,84.77
2018-12-26T14:40:15.398Z,84.46
2018-12-26T14:42:44.252Z,84.61
2018-12-26T14:45:13.588Z,84.25
2018-12-26T14:47:43.227Z,84.21
2018-12-26T14:50:12.076Z,84.80
2018-12-26T14:52:41.535Z,84.40
2018-12-26T14:55:11.078Z,85.08
2018-12-26T14:57:39.977Z,84.64
2018-12-26T15:00:09.319Z,83.94
2018-12-26T15:02:38.817Z,84.42
2018-12-26T15:05:07.641Z,85.04
2018-12-26T15:07:36.552Z,84.41
2018-12-26T15:10:06.546Z,84.42
2018-12-26T15:12:35.486Z,85.05
2018-12-26T15:15:04.278Z,85.17
2018-12-26T15:17:33.120Z,84.71
2018-12-26T15:20:01.910Z,85.02
2018-12-26T15:22:32.038Z,85.31
2018-12-26T15:25:00.950Z,85.00
2018-12-26T15:27:29.852Z,85.39
2018-12-26T15:29:58.807Z,84.91
2018-12-26T15:32:28.064Z,85.62
2018-12-26T15:34:57.483Z,85.41
2018-12-26T15:37:26.254Z,85.49
2018-12-26T15:39:55.075Z,85.88
2018-12-26T15:42:24.963Z,85.01
2018-12-26T15:44:53.808Z,85.18
2018-12-26T15:47:22.592Z,85.01
2018-12-26T15:49:51.993Z,85.71
2018-12-26T15:52:20.846Z,84.95
2018-12-26T15:54:49.689Z,85.10
2018-12-26T15:57:18.479Z,85.27
2018-12-26T15:59:48.488Z,85.25
2018-12-26T16:02:17.264Z,85.01
2018-12-26T16:04:47.049Z,84.91
2018-12-26T16:07:15.906Z,85.26
2018-12-26T16:09:44.815Z,85.03
2018-12-26T16:12:13.688Z,85.48
2018-12-26T16:14:42.484Z,85.49
2018-12-26T16:17:11.275Z,85.66
2018-12-26T16:19:40.129Z,85.58
2018-12-26T16:22:09.614Z,85.27
2018-12-26T16:24:38.547Z,84.90
2018-12-26T16:27:07.397Z,85.96
2018-12-26T16:29:36.797Z,86.13
2018-12-26T16:32:06.315Z,85.03
2018-12-26T16:34:35.090Z,85.58
2018-12-26T16:37:03.887Z,85.48
2018-12-26T16:39:35.814Z,86.29
2018-12-26T16:42:02.440Z,86.14
2018-12-26T16:44:31.306Z,85.82
2018-12-26T16:47:00.794Z,86.26
2018-12-26T16:49:29.684Z,86.10
2018-12-26T16:51:58.502Z,85.82
2018-12-26T16:54:27.316Z,85.72
2018-12-26T16:56:56.192Z,86.42
2018-12-26T16:59:25.024Z,86.06
2018-12-26T17:01:58.688Z,86.54
2018-12-26T17:04:27.469Z,86.74
2018-12-26T17:06:56.317Z,86.48
2018-12-26T17:09:25.479Z,86.16
2018-12-26T17:11:54.390Z,86.15
2018-12-26T17:14:23.394Z,86.77
2018-12-26T17:16:52.224Z,85.93
2018-12-26T17:19:21.020Z,86.55
2018-12-26T17:21:49.866Z,86.36
2018-12-26T17:24:18.647Z,86.40
2018-12-26T17:26:47.437Z,86.71
2018-12-26T17:29:16.342Z,86.62
2018-12-26T17:31:45.155Z,86.65
2018-12-26T17:34:15.035Z,86.10
2018-12-26T17:36:43.879Z,86.51
2018-12-26T17:39:13.037Z,85.82
2018-12-26T17:41:41.798Z,86.26
2018-12-26T17:44:10.592Z,86.45
2018-12-26T17:46:39.420Z,85.70
2018-12-26T17:49:08.292Z,86.02
2018-12-26T17:51:37.309Z,86.42
2018-12-26T17:54:17.440Z,86.57
2018-12-26T17:57:04.705Z,86.51
2018-12-26T17:59:44.362Z,86.34
2018-12-26T18:02:18.230Z,86.74
2018-12-26T18:04:47.004Z,86.52
2018-12-26T18:07:15.871Z,86.47
2018-12-26T18:09:44.677Z,86.05
2018-12-26T18:12:13.480Z,85.88
2018-12-26T18:14:42.279Z,86.41
2018-12-26T18:17:11.101Z,85.82
2018-12-26T18:19:39.939Z,86.07
2018-12-26T18:22:09.763Z,85.79
2018-12-26T18:24:39.720Z,86.30
2018-12-26T18:27:08.601Z,85.95
2018-12-26T18:29:37.470Z,86.04
2018-12-26T18:32:06.294Z,86.00
2018-12-26T18:34:35.684Z,86.09
2018-12-26T18:37:04.502Z,85.74
2018-12-26T18:39:33.331Z,85.42
2018-12-26T18:42:02.943Z,86.28
2018-12-26T18:44:31.777Z,85.84
2018-12-26T18:47:00.594Z,85.53
2018-12-26T18:49:29.502Z,85.88
2018-12-26T18:51:58.291Z,85.84
2018-12-26T18:54:27.079Z,85.91
2018-12-26T18:56:56.000Z,85.58
2018-12-26T18:59:25.370Z,85.98
2018-12-26T19:01:54.143Z,85.48
2018-12-26T19:04:23.023Z,85.59
2018-12-26T19:06:51.844Z,85.62
2018-12-26T19:09:20.624Z,84.86
2018-12-26T19:11:49.460Z,84.88
2018-12-26T19:14:18.571Z,85.54
2018-12-26T19:16:47.456Z,85.49
2018-12-26T19:19:16.282Z,85.15
2018-12-26T19:21:45.136Z,84.70
2018-12-26T19:24:13.927Z,85.21
2018-12-26T19:26:43.578Z,84.28
2018-12-26T19:29:13.374Z,84.76
2018-12-26T19:31:42.186Z,84.49
2018-12-26T19:34:11.963Z,84.81
2018-12-26T19:36:41.425Z,85.07
2018-12-26T19:39:11.281Z,84.87
2018-12-26T19:41:43.089Z,83.97
2018-12-26T19:44:10.807Z,84.69
2018-12-26T19:46:39.598Z,83.81
2018-12-26T19:49:08.428Z,84.53
2018-12-26T19:51:37.715Z,84.17
2018-12-26T19:54:06.602Z,83.57
2018-12-26T19:56:35.420Z,83.81
2018-12-26T19:59:04.973Z,84.16
2018-12-26T20:01:33.797Z,83.78
2018-12-26T20:04:03.519Z,84.29
2018-12-26T20:06:34.111Z,84.29
2018-12-26T20:09:03.052Z,83.80
2018-12-26T20:11:31.887Z,83.99
2018-12-26T20:14:00.741Z,84.40
2018-12-26T20:16:29.632Z,84.01
2018-12-26T20:18:58.553Z,84.59
2018-12-26T20:21:27.427Z,84.92
2018-12-26T20:23:56.938Z,84.76
2018-12-26T20:26:25.788Z,84.79
2018-12-26T20:28:54.575Z,84.86
2018-12-26T20:31:23.392Z,85.31
2018-12-26T20:33:52.240Z,85.45
2018-12-26T20:36:21.766Z,84.90
2018-12-26T20:38:51.599Z,84.80
2018-12-26T20:41:21.099Z,85.63
2018-12-26T20:43:49.900Z,85.34
2018-12-26T20:46:18.687Z,85.61
2018-12-26T20:48:47.463Z,85.42
2018-12-26T20:51:17.867Z,84.88
2018-12-26T20:53:46.900Z,85.06
2018-12-26T20:56:15.676Z,85.11
2018-12-26T20:58:44.474Z,85.57
2018-12-26T21:01:13.259Z,85.45
2018-12-26T21:03:42.105Z,85.70
2018-12-26T21:06:10.897Z,85.47
2018-12-26T21:08:39.695Z,85.81
2018-12-26T21:11:08.472Z,85.69
2018-12-26T21:13:38.478Z,84.63
2018-12-26T21:16:07.282Z,85.37
2018-12-26T21:18:36.140Z,85.58
2018-12-26T21:21:06.388Z,85.29
2018-12-26T21:23:35.176Z,84.98
2018-12-26T21:26:04.804Z,85.10
2018-12-26T21:28:33.632Z,84.64
2018-12-26T21:31:02.419Z,84.60
2018-12-26T21:33:31.327Z,84.88
2018-12-26T21:36:00.117Z,84.94
2018-12-26T21:38:28.907Z,84.48
2018-12-26T21:40:57.727Z,84.61
2018-12-26T21:43:26.906Z,84.73
2018-12-26T21:45:56.288Z,84.01
2018-12-26T21:48:25.167Z,83.85
2018-12-26T21:50:54.592Z,83.87
2018-12-26T21:53:24.465Z,84.46
2018-12-26T21:55:55.065Z,83.98
2018-12-26T21:58:23.851Z,84.11
2018-12-26T22:00:52.747Z,83.46
2018-12-26T22:03:21.562Z,83.50
2018-12-26T22:05:50.879Z,83.97
2018-12-26T22:08:19.658Z,83.48
2018-12-26T22:10:48.441Z,83.46
2018-12-26T22:13:18.440Z,84.22
2018-12-26T22:15:46.020Z,83.33
2018-12-26T22:18:14.890Z,84.07
2018-12-26T22:20:44.853Z,83.19
2018-12-26T22:23:14.951Z,83.36
2018-12-26T22:25:43.907Z,83.37
2018-12-26T22:28:12.823Z,83.88
2018-12-26T22:30:41.683Z,83.85
2018-12-26T22:33:11.636Z,83.67
2018-12-26T22:35:40.417Z,83.49
2018-12-26T22:38:09.313Z,83.45
2018-12-26T22:40:38.135Z,83.61
2018-12-26T22:43:07.699Z,83.50
2018-12-26T22:48:11.555Z,83.15
2018-12-26T22:50:43.001Z,82.90
2018-12-26T22:53:11.759Z,82.84
2018-12-26T22:55:40.581Z,83.19
2018-12-26T22:58:10.253Z,82.80
2018-12-26T23:00:42.855Z,83.24
2018-12-26T23:03:11.643Z,82.94
2018-12-26T23:05:40.453Z,82.73
2018-12-26T23:08:09.259Z,83.14
2018-12-26T23:10:38.128Z,82.74
2018-12-26T23:13:06.934Z,83.17
2018-12-26T23:15:35.814Z,82.88
2018-12-26T23:18:04.578Z,82.59
2018-12-26T23:20:33.920Z,83.30
2018-12-26T23:23:02.858Z,82.68
2018-12-26T23:25:31.737Z,82.73
2018-12-26T23:28:00.529Z,82.65
2018-12-26T23:30:29.376Z,82.72
2018-12-26T23:32:58.142Z,83.03
2018-12-26T23:35:26.984Z,82.81
2018-12-26T23:37:56.309Z,82.38
2018-12-26T23:40:29.862Z,83.12
2018-12-26T23:43:00.002Z,82.29
2018-12-26T23:45:28.906Z,82.84
2018-12-26T23:47:57.695Z,82.97
2018-12-26T23:50:26.492Z,82.40
2018-12-26T23:52:55.283Z,83.21
2018-12-26T23:55:24.658Z,82.83
2018-12-26T23:57:53.478Z,82.37
